sensor_id;sensor_type;location;lat;lon;timestamp;P1;durP1;ratioP1;P2;durP2;ratioP2
6414;SDS011;3240;48.790;9.210;2022-10-30T00:01:51;26.23;;;12.80;;
6414;SDS011;3240;48.790;9.210;2022-10-30T00:04:20;22.70;;;10.90;;
6414;SDS011;3240;48.790;9.210;2022-10-30T00:06:48;24.40;;;11.90;;
6414;SDS011;3240;48.790;9.210;2022-10-30T00:09:16;20.93;;;10.53;;
6414;SDS011;3240;48.790;9.210;2022-10-30T00:11:45;26.07;;;11.60;;
6414;SDS011;3240;48.790;9.210;2022-10-30T00:14:13;25.50;;;11.00;;
6414;SDS011;3240;48.790;9.210;2022-10-30T00:16:41;21.60;;;11.73;;
6414;SDS011;3240;48.790;9.210;2022-10-30T00:19:10;18.93;;;10.63;;
6414;SDS011;3240;48.790;9.210;2022-10-30T00:21:38;22.83;;;11.57;;
6414;SDS011;3240;48.790;9.210;2022-10-30T00:24:06;19.23;;;10.50;;
6414;SDS011;3240;48.790;9.210;2022-10-30T00:26:35;24.83;;;10.37;;
6414;SDS011;3240;48.790;9.210;2022-10-30T00:29:03;22.13;;;11.00;;
6414;SDS011;3240;48.790;9.210;2022-10-30T00:31:31;17.80;;;10.97;;
6414;SDS011;3240;48.790;9.210;2022-10-30T00:34:00;24.53;;;10.70;;
6414;SDS011;3240;48.790;9.210;2022-10-30T00:36:28;26.17;;;10.70;;
6414;SDS011;3240;48.790;9.210;2022-10-30T00:38:56;24.03;;;10.57;;
6414;SDS011;3240;48.790;9.210;2022-10-30T00:41:25;21.43;;;9.93;;
6414;SDS011;3240;48.790;9.210;2022-10-30T00:43:53;21.23;;;9.37;;
6414;SDS011;3240;48.790;9.210;2022-10-30T00:46:25;21.60;;;9.10;;
6414;SDS011;3240;48.790;9.210;2022-10-30T00:48:53;17.57;;;9.33;;
6414;SDS011;3240;48.790;9.210;2022-10-30T00:51:20;17.45;;;9.60;;
6414;SDS011;3240;48.790;9.210;2022-10-30T00:53:48;25.10;;;10.30;;
6414;SDS011;3240;48.790;9.210;2022-10-30T00:56:17;14.03;;;8.33;;
6414;SDS011;3240;48.790;9.210;2022-10-30T00:58:46;16.53;;;8.30;;
6414;SDS011;3240;48.790;9.210;2022-10-30T01:01:15;19.57;;;7.73;;
6414;SDS011;3240;48.790;9.210;2022-10-30T01:03:41;17.50;;;8.10;;
6414;SDS011;3240;48.790;9.210;2022-10-30T01:06:10;19.77;;;8.37;;
6414;SDS011;3240;48.790;9.210;2022-10-30T01:08:38;18.67;;;7.97;;
6414;SDS011;3240;48.790;9.210;2022-10-30T01:11:06;16.60;;;9.30;;
6414;SDS011;3240;48.790;9.210;2022-10-30T01:13:35;21.70;;;8.63;;
6414;SDS011;3240;48.790;9.210;2022-10-30T01:16:13;15.83;;;8.90;;
6414;SDS011;3240;48.790;9.210;2022-10-30T01:18:40;18.13;;;8.77;;
6414;SDS011;3240;48.790;9.210;2022-10-30T01:21:10;19.43;;;8.80;;
6414;SDS011;3240;48.790;9.210;2022-10-30T01:23:40;17.67;;;8.50;;
6414;SDS011;3240;48.790;9.210;2022-10-30T01:26:10;26.03;;;9.30;;
6414;SDS011;3240;48.790;9.210;2022-10-30T01:28:41;21.03;;;9.50;;
6414;SDS011;3240;48.790;9.210;2022-10-30T01:33:54;16.53;;;8.83;;
6414;SDS011;3240;48.790;9.210;2022-10-30T01:36:24;15.80;;;9.67;;
6414;SDS011;3240;48.790;9.210;2022-10-30T01:38:52;17.83;;;9.27;;
6414;SDS011;3240;48.790;9.210;2022-10-30T01:41:18;19.97;;;8.87;;
6414;SDS011;3240;48.790;9.210;2022-10-30T01:43:47;17.57;;;8.33;;
6414;SDS011;3240;48.790;9.210;2022-10-30T01:47:24;24.43;;;9.90;;
6414;SDS011;3240;48.790;9.210;2022-10-30T01:49:03;22.83;;;9.63;;
6414;SDS011;3240;48.790;9.210;2022-10-30T01:54:08;17.80;;;9.40;;
6414;SDS011;3240;48.790;9.210;2022-10-30T01:56:37;18.37;;;9.07;;
6414;SDS011;3240;48.790;9.210;2022-10-30T01:59:07;18.30;;;9.47;;
6414;SDS011;3240;48.790;9.210;2022-10-30T02:01:33;24.00;;;9.67;;
6414;SDS011;3240;48.790;9.210;2022-10-30T02:04:01;15.63;;;8.43;;
6414;SDS011;3240;48.790;9.210;2022-10-30T02:06:29;22.77;;;9.00;;
6414;SDS011;3240;48.790;9.210;2022-10-30T02:08:58;18.83;;;8.77;;
6414;SDS011;3240;48.790;9.210;2022-10-30T02:11:26;18.80;;;8.30;;
6414;SDS011;3240;48.790;9.210;2022-10-30T02:13:55;21.67;;;8.63;;
6414;SDS011;3240;48.790;9.210;2022-10-30T02:16:23;29.03;;;8.87;;
6414;SDS011;3240;48.790;9.210;2022-10-30T02:18:51;18.03;;;8.83;;
6414;SDS011;3240;48.790;9.210;2022-10-30T02:21:19;16.43;;;8.90;;
6414;SDS011;3240;48.790;9.210;2022-10-30T02:23:48;16.80;;;9.83;;
6414;SDS011;3240;48.790;9.210;2022-10-30T02:26:16;19.60;;;8.90;;
6414;SDS011;3240;48.790;9.210;2022-10-30T02:28:44;22.47;;;8.57;;
6414;SDS011;3240;48.790;9.210;2022-10-30T02:31:13;15.43;;;8.20;;
6414;SDS011;3240;48.790;9.210;2022-10-30T02:33:43;15.63;;;7.90;;
6414;SDS011;3240;48.790;9.210;2022-10-30T02:36:10;14.30;;;9.03;;
6414;SDS011;3240;48.790;9.210;2022-10-30T02:38:38;22.53;;;9.57;;
6414;SDS011;3240;48.790;9.210;2022-10-30T02:41:07;22.00;;;9.20;;
6414;SDS011;3240;48.790;9.210;2022-10-30T02:43:35;20.57;;;9.20;;
6414;SDS011;3240;48.790;9.210;2022-10-30T02:46:03;15.97;;;8.27;;
6414;SDS011;3240;48.790;9.210;2022-10-30T02:48:32;17.90;;;8.80;;
6414;SDS011;3240;48.790;9.210;2022-10-30T02:51:00;24.13;;;8.50;;
6414;SDS011;3240;48.790;9.210;2022-10-30T02:53:28;16.67;;;8.53;;
6414;SDS011;3240;48.790;9.210;2022-10-30T02:56:01;18.77;;;8.60;;
6414;SDS011;3240;48.790;9.210;2022-10-30T02:58:25;15.43;;;8.20;;
6414;SDS011;3240;48.790;9.210;2022-10-30T03:00:53;18.30;;;8.70;;
6414;SDS011;3240;48.790;9.210;2022-10-30T03:03:22;21.80;;;7.83;;
6414;SDS011;3240;48.790;9.210;2022-10-30T03:05:50;14.47;;;9.47;;
6414;SDS011;3240;48.790;9.210;2022-10-30T03:08:19;18.63;;;9.00;;
6414;SDS011;3240;48.790;9.210;2022-10-30T03:10:47;20.67;;;9.20;;
6414;SDS011;3240;48.790;9.210;2022-10-30T03:13:15;22.60;;;8.63;;
6414;SDS011;3240;48.790;9.210;2022-10-30T03:15:44;23.23;;;8.70;;
6414;SDS011;3240;48.790;9.210;2022-10-30T03:18:12;16.73;;;8.43;;
6414;SDS011;3240;48.790;9.210;2022-10-30T03:20:40;20.90;;;9.37;;
6414;SDS011;3240;48.790;9.210;2022-10-30T03:23:09;19.47;;;9.20;;
6414;SDS011;3240;48.790;9.210;2022-10-30T03:25:37;20.57;;;9.43;;
6414;SDS011;3240;48.790;9.210;2022-10-30T03:28:05;16.67;;;7.87;;
6414;SDS011;3240;48.790;9.210;2022-10-30T03:30:34;22.83;;;8.63;;
6414;SDS011;3240;48.790;9.210;2022-10-30T03:33:02;14.80;;;8.30;;
6414;SDS011;3240;48.790;9.210;2022-10-30T03:35:30;21.50;;;8.07;;
6414;SDS011;3240;48.790;9.210;2022-10-30T03:37:59;20.10;;;7.90;;
6414;SDS011;3240;48.790;9.210;2022-10-30T03:40:27;14.40;;;8.13;;
6414;SDS011;3240;48.790;9.210;2022-10-30T03:42:55;15.27;;;8.20;;
6414;SDS011;3240;48.790;9.210;2022-10-30T03:45:24;16.10;;;7.47;;
6414;SDS011;3240;48.790;9.210;2022-10-30T03:47:52;13.47;;;7.93;;
6414;SDS011;3240;48.790;9.210;2022-10-30T03:50:20;14.00;;;7.00;;
6414;SDS011;3240;48.790;9.210;2022-10-30T03:52:49;20.20;;;7.40;;
6414;SDS011;3240;48.790;9.210;2022-10-30T03:55:17;16.37;;;7.60;;
6414;SDS011;3240;48.790;9.210;2022-10-30T03:57:45;13.00;;;7.03;;
6414;SDS011;3240;48.790;9.210;2022-10-30T04:00:14;15.30;;;6.80;;
6414;SDS011;3240;48.790;9.210;2022-10-30T04:02:44;19.17;;;7.77;;
6414;SDS011;3240;48.790;9.210;2022-10-30T04:05:11;12.00;;;7.13;;
6414;SDS011;3240;48.790;9.210;2022-10-30T04:07:39;19.77;;;8.37;;
6414;SDS011;3240;48.790;9.210;2022-10-30T04:10:08;16.00;;;6.87;;
6414;SDS011;3240;48.790;9.210;2022-10-30T04:12:36;23.20;;;7.73;;
6414;SDS011;3240;48.790;9.210;2022-10-30T04:15:05;18.27;;;7.33;;
6414;SDS011;3240;48.790;9.210;2022-10-30T04:17:34;20.03;;;9.23;;
6414;SDS011;3240;48.790;9.210;2022-10-30T04:20:02;14.50;;;7.53;;
6414;SDS011;3240;48.790;9.210;2022-10-30T04:22:30;13.17;;;7.70;;
6414;SDS011;3240;48.790;9.210;2022-10-30T04:24:58;14.63;;;7.50;;
6414;SDS011;3240;48.790;9.210;2022-10-30T04:27:27;17.83;;;7.90;;
6414;SDS011;3240;48.790;9.210;2022-10-30T04:29:55;14.67;;;7.53;;
6414;SDS011;3240;48.790;9.210;2022-10-30T04:32:23;17.20;;;7.63;;
6414;SDS011;3240;48.790;9.210;2022-10-30T04:34:52;14.93;;;7.60;;
6414;SDS011;3240;48.790;9.210;2022-10-30T04:37:20;18.47;;;7.40;;
6414;SDS011;3240;48.790;9.210;2022-10-30T04:39:49;16.43;;;8.23;;
6414;SDS011;3240;48.790;9.210;2022-10-30T04:42:17;26.03;;;7.97;;
6414;SDS011;3240;48.790;9.210;2022-10-30T04:44:45;13.40;;;7.60;;
6414;SDS011;3240;48.790;9.210;2022-10-30T04:47:13;24.57;;;9.10;;
6414;SDS011;3240;48.790;9.210;2022-10-30T04:49:42;22.33;;;8.20;;
6414;SDS011;3240;48.790;9.210;2022-10-30T04:52:10;14.97;;;8.10;;
6414;SDS011;3240;48.790;9.210;2022-10-30T04:54:38;19.87;;;8.30;;
6414;SDS011;3240;48.790;9.210;2022-10-30T04:57:07;19.92;;;9.30;;
6414;SDS011;3240;48.790;9.210;2022-10-30T04:59:35;14.00;;;8.73;;
6414;SDS011;3240;48.790;9.210;2022-10-30T05:02:03;22.80;;;9.20;;
6414;SDS011;3240;48.790;9.210;2022-10-30T05:04:32;19.10;;;8.20;;
6414;SDS011;3240;48.790;9.210;2022-10-30T05:07:00;27.37;;;9.33;;
6414;SDS011;3240;48.790;9.210;2022-10-30T05:09:29;19.10;;;9.03;;
6414;SDS011;3240;48.790;9.210;2022-10-30T05:11:57;21.83;;;9.30;;
6414;SDS011;3240;48.790;9.210;2022-10-30T05:14:27;19.00;;;8.60;;
6414;SDS011;3240;48.790;9.210;2022-10-30T05:16:54;17.20;;;8.40;;
6414;SDS011;3240;48.790;9.210;2022-10-30T05:19:22;18.83;;;7.80;;
6414;SDS011;3240;48.790;9.210;2022-10-30T05:21:50;18.75;;;8.18;;
6414;SDS011;3240;48.790;9.210;2022-10-30T05:24:19;14.10;;;7.17;;
6414;SDS011;3240;48.790;9.210;2022-10-30T05:26:47;18.60;;;7.30;;
6414;SDS011;3240;48.790;9.210;2022-10-30T05:29:15;13.97;;;6.40;;
6414;SDS011;3240;48.790;9.210;2022-10-30T05:31:44;16.90;;;6.40;;
6414;SDS011;3240;48.790;9.210;2022-10-30T05:34:12;13.03;;;6.23;;
6414;SDS011;3240;48.790;9.210;2022-10-30T05:36:40;15.97;;;6.30;;
6414;SDS011;3240;48.790;9.210;2022-10-30T05:39:09;14.70;;;6.33;;
6414;SDS011;3240;48.790;9.210;2022-10-30T05:41:37;13.53;;;6.43;;
6414;SDS011;3240;48.790;9.210;2022-10-30T05:44:05;11.97;;;6.50;;
6414;SDS011;3240;48.790;9.210;2022-10-30T05:46:34;15.10;;;6.57;;
6414;SDS011;3240;48.790;9.210;2022-10-30T05:49:02;13.20;;;6.33;;
6414;SDS011;3240;48.790;9.210;2022-10-30T05:51:30;13.80;;;6.20;;
6414;SDS011;3240;48.790;9.210;2022-10-30T05:53:59;14.73;;;6.67;;
6414;SDS011;3240;48.790;9.210;2022-10-30T05:56:27;12.80;;;5.87;;
6414;SDS011;3240;48.790;9.210;2022-10-30T05:58:55;13.53;;;6.17;;
6414;SDS011;3240;48.790;9.210;2022-10-30T06:01:23;16.67;;;5.90;;
6414;SDS011;3240;48.790;9.210;2022-10-30T06:03:52;19.07;;;5.90;;
6414;SDS011;3240;48.790;9.210;2022-10-30T06:06:20;12.70;;;6.50;;
6414;SDS011;3240;48.790;9.210;2022-10-30T06:08:48;15.20;;;6.10;;
6414;SDS011;3240;48.790;9.210;2022-10-30T06:11:17;15.90;;;5.70;;
6414;SDS011;3240;48.790;9.210;2022-10-30T06:13:46;18.30;;;5.93;;
6414;SDS011;3240;48.790;9.210;2022-10-30T06:16:13;16.63;;;6.53;;
6414;SDS011;3240;48.790;9.210;2022-10-30T06:18:42;15.33;;;5.90;;
6414;SDS011;3240;48.790;9.210;2022-10-30T06:21:10;16.40;;;6.20;;
6414;SDS011;3240;48.790;9.210;2022-10-30T06:23:38;12.00;;;5.40;;
6414;SDS011;3240;48.790;9.210;2022-10-30T06:26:07;15.43;;;6.50;;
6414;SDS011;3240;48.790;9.210;2022-10-30T06:28:35;16.23;;;6.50;;
6414;SDS011;3240;48.790;9.210;2022-10-30T06:31:03;14.53;;;6.80;;
6414;SDS011;3240;48.790;9.210;2022-10-30T06:33:32;18.53;;;6.50;;
6414;SDS011;3240;48.790;9.210;2022-10-30T06:36:00;13.03;;;6.40;;
6414;SDS011;3240;48.790;9.210;2022-10-30T06:38:28;17.00;;;6.17;;
6414;SDS011;3240;48.790;9.210;2022-10-30T06:40:57;13.63;;;6.53;;
6414;SDS011;3240;48.790;9.210;2022-10-30T06:43:25;12.80;;;4.67;;
6414;SDS011;3240;48.790;9.210;2022-10-30T06:45:53;14.87;;;6.60;;
6414;SDS011;3240;48.790;9.210;2022-10-30T06:48:22;16.77;;;6.27;;
6414;SDS011;3240;48.790;9.210;2022-10-30T06:50:53;13.48;;;6.12;;
6414;SDS011;3240;48.790;9.210;2022-10-30T06:53:20;11.47;;;5.40;;
6414;SDS011;3240;48.790;9.210;2022-10-30T06:55:54;16.67;;;6.50;;
6414;SDS011;3240;48.790;9.210;2022-10-30T06:58:22;16.63;;;6.17;;
6414;SDS011;3240;48.790;9.210;2022-10-30T07:00:51;14.47;;;5.90;;
6414;SDS011;3240;48.790;9.210;2022-10-30T07:03:20;12.73;;;6.10;;
6414;SDS011;3240;48.790;9.210;2022-10-30T07:05:50;17.27;;;6.40;;
6414;SDS011;3240;48.790;9.210;2022-10-30T07:08:17;13.90;;;6.10;;
6414;SDS011;3240;48.790;9.210;2022-10-30T07:10:45;16.07;;;6.30;;
6414;SDS011;3240;48.790;9.210;2022-10-30T07:13:14;13.23;;;6.13;;
6414;SDS011;3240;48.790;9.210;2022-10-30T07:15:42;14.77;;;5.20;;
6414;SDS011;3240;48.790;9.210;2022-10-30T07:18:10;15.20;;;5.77;;
6414;SDS011;3240;48.790;9.210;2022-10-30T07:20:39;11.80;;;6.10;;
6414;SDS011;3240;48.790;9.210;2022-10-30T07:23:07;12.47;;;6.50;;
6414;SDS011;3240;48.790;9.210;2022-10-30T07:25:35;17.30;;;5.63;;
6414;SDS011;3240;48.790;9.210;2022-10-30T07:28:04;10.33;;;5.63;;
6414;SDS011;3240;48.790;9.210;2022-10-30T07:30:32;10.30;;;4.70;;
6414;SDS011;3240;48.790;9.210;2022-10-30T07:33:02;12.13;;;5.70;;
6414;SDS011;3240;48.790;9.210;2022-10-30T07:35:29;13.43;;;5.90;;
6414;SDS011;3240;48.790;9.210;2022-10-30T07:38:01;12.43;;;5.50;;
6414;SDS011;3240;48.790;9.210;2022-10-30T07:40:28;14.87;;;6.30;;
6414;SDS011;3240;48.790;9.210;2022-10-30T07:42:57;16.27;;;6.10;;
6414;SDS011;3240;48.790;9.210;2022-10-30T07:45:26;13.47;;;5.80;;
6414;SDS011;3240;48.790;9.210;2022-10-30T07:47:54;18.97;;;6.03;;
6414;SDS011;3240;48.790;9.210;2022-10-30T07:50:22;12.53;;;5.23;;
6414;SDS011;3240;48.790;9.210;2022-10-30T07:52:51;11.10;;;5.27;;
6414;SDS011;3240;48.790;9.210;2022-10-30T07:55:19;13.33;;;6.00;;
6414;SDS011;3240;48.790;9.210;2022-10-30T07:57:47;10.90;;;5.07;;
6414;SDS011;3240;48.790;9.210;2022-10-30T08:00:16;17.07;;;6.30;;
6414;SDS011;3240;48.790;9.210;2022-10-30T08:02:47;12.17;;;5.90;;
6414;SDS011;3240;48.790;9.210;2022-10-30T08:05:13;12.50;;;5.80;;
6414;SDS011;3240;48.790;9.210;2022-10-30T08:07:41;11.57;;;5.50;;
6414;SDS011;3240;48.790;9.210;2022-10-30T08:10:09;10.40;;;5.23;;
6414;SDS011;3240;48.790;9.210;2022-10-30T08:12:38;16.87;;;6.00;;
6414;SDS011;3240;48.790;9.210;2022-10-30T08:15:06;12.27;;;5.63;;
6414;SDS011;3240;48.790;9.210;2022-10-30T08:17:42;14.33;;;6.13;;
6414;SDS011;3240;48.790;9.210;2022-10-30T08:20:10;8.03;;;4.90;;
6414;SDS011;3240;48.790;9.210;2022-10-30T08:22:45;14.70;;;6.20;;
6414;SDS011;3240;48.790;9.210;2022-10-30T08:25:12;12.93;;;4.73;;
6414;SDS011;3240;48.790;9.210;2022-10-30T08:30:15;14.40;;;5.73;;
6414;SDS011;3240;48.790;9.210;2022-10-30T08:32:43;13.10;;;4.80;;
6414;SDS011;3240;48.790;9.210;2022-10-30T08:35:11;14.83;;;5.50;;
6414;SDS011;3240;48.790;9.210;2022-10-30T08:37:40;15.87;;;6.00;;
6414;SDS011;3240;48.790;9.210;2022-10-30T08:40:09;11.40;;;5.37;;
6414;SDS011;3240;48.790;9.210;2022-10-30T08:42:38;14.27;;;4.50;;
6414;SDS011;3240;48.790;9.210;2022-10-30T08:45:06;12.80;;;5.73;;
6414;SDS011;3240;48.790;9.210;2022-10-30T08:47:34;15.90;;;5.63;;
6414;SDS011;3240;48.790;9.210;2022-10-30T08:50:03;12.57;;;5.77;;
6414;SDS011;3240;48.790;9.210;2022-10-30T08:52:31;16.43;;;5.60;;
6414;SDS011;3240;48.790;9.210;2022-10-30T08:54:59;10.93;;;5.50;;
6414;SDS011;3240;48.790;9.210;2022-10-30T08:57:28;10.83;;;5.30;;
6414;SDS011;3240;48.790;9.210;2022-10-30T08:59:56;16.57;;;5.40;;
6414;SDS011;3240;48.790;9.210;2022-10-30T09:02:24;17.70;;;5.67;;
6414;SDS011;3240;48.790;9.210;2022-10-30T09:04:54;13.60;;;5.50;;
6414;SDS011;3240;48.790;9.210;2022-10-30T09:07:22;12.93;;;6.43;;
6414;SDS011;3240;48.790;9.210;2022-10-30T09:09:50;12.63;;;5.90;;
6414;SDS011;3240;48.790;9.210;2022-10-30T09:12:19;18.83;;;5.90;;
6414;SDS011;3240;48.790;9.210;2022-10-30T09:14:47;10.73;;;5.53;;
6414;SDS011;3240;48.790;9.210;2022-10-30T09:17:15;18.10;;;5.80;;
6414;SDS011;3240;48.790;9.210;2022-10-30T09:19:44;16.33;;;5.03;;
6414;SDS011;3240;48.790;9.210;2022-10-30T09:22:12;22.07;;;6.80;;
6414;SDS011;3240;48.790;9.210;2022-10-30T09:24:40;10.00;;;6.00;;
6414;SDS011;3240;48.790;9.210;2022-10-30T09:27:09;14.03;;;6.60;;
6414;SDS011;3240;48.790;9.210;2022-10-30T09:29:37;19.80;;;6.10;;
6414;SDS011;3240;48.790;9.210;2022-10-30T09:32:05;16.23;;;5.60;;
6414;SDS011;3240;48.790;9.210;2022-10-30T09:34:35;13.60;;;5.47;;
6414;SDS011;3240;48.790;9.210;2022-10-30T09:37:03;16.07;;;6.67;;
6414;SDS011;3240;48.790;9.210;2022-10-30T09:39:31;14.30;;;5.60;;
6414;SDS011;3240;48.790;9.210;2022-10-30T09:42:36;12.03;;;5.50;;
6414;SDS011;3240;48.790;9.210;2022-10-30T09:44:52;11.20;;;5.83;;
6414;SDS011;3240;48.790;9.210;2022-10-30T09:47:27;17.53;;;5.97;;
6414;SDS011;3240;48.790;9.210;2022-10-30T09:49:54;13.03;;;5.30;;
6414;SDS011;3240;48.790;9.210;2022-10-30T09:52:23;13.43;;;5.25;;
6414;SDS011;3240;48.790;9.210;2022-10-30T09:57:29;12.60;;;5.70;;
6414;SDS011;3240;48.790;9.210;2022-10-30T09:59:57;20.63;;;5.77;;
6414;SDS011;3240;48.790;9.210;2022-10-30T10:02:26;14.40;;;4.93;;
6414;SDS011;3240;48.790;9.210;2022-10-30T10:04:51;13.70;;;6.00;;
6414;SDS011;3240;48.790;9.210;2022-10-30T10:07:20;9.37;;;5.00;;
6414;SDS011;3240;48.790;9.210;2022-10-30T10:09:48;16.67;;;5.17;;
6414;SDS011;3240;48.790;9.210;2022-10-30T10:12:21;14.70;;;5.33;;
6414;SDS011;3240;48.790;9.210;2022-10-30T10:14:46;12.63;;;5.03;;
6414;SDS011;3240;48.790;9.210;2022-10-30T10:17:18;12.83;;;5.80;;
6414;SDS011;3240;48.790;9.210;2022-10-30T10:19:47;9.70;;;5.20;;
6414;SDS011;3240;48.790;9.210;2022-10-30T10:22:18;19.53;;;5.87;;
6414;SDS011;3240;48.790;9.210;2022-10-30T10:24:41;10.83;;;4.77;;
6414;SDS011;3240;48.790;9.210;2022-10-30T10:29:58;9.53;;;4.90;;
6414;SDS011;3240;48.790;9.210;2022-10-30T10:32:28;10.20;;;4.90;;
6414;SDS011;3240;48.790;9.210;2022-10-30T10:37:44;12.27;;;4.90;;
6414;SDS011;3240;48.790;9.210;2022-10-30T10:40:27;17.33;;;5.70;;
6414;SDS011;3240;48.790;9.210;2022-10-30T10:43:00;11.43;;;4.40;;
6414;SDS011;3240;48.790;9.210;2022-10-30T10:48:18;16.00;;;4.60;;
6414;SDS011;3240;48.790;9.210;2022-10-30T10:53:33;15.83;;;5.03;;
6414;SDS011;3240;48.790;9.210;2022-10-30T10:55:58;8.77;;;4.80;;
6414;SDS011;3240;48.790;9.210;2022-10-30T10:58:30;14.87;;;4.97;;
6414;SDS011;3240;48.790;9.210;2022-10-30T11:00:57;12.63;;;5.47;;
6414;SDS011;3240;48.790;9.210;2022-10-30T11:03:28;10.53;;;4.30;;
6414;SDS011;3240;48.790;9.210;2022-10-30T11:05:56;9.53;;;4.23;;
6414;SDS011;3240;48.790;9.210;2022-10-30T11:08:26;16.23;;;4.77;;
6414;SDS011;3240;48.790;9.210;2022-10-30T11:10:59;10.40;;;5.37;;
6414;SDS011;3240;48.790;9.210;2022-10-30T11:13:28;13.27;;;4.93;;
6414;SDS011;3240;48.790;9.210;2022-10-30T11:16:08;15.07;;;5.73;;
6414;SDS011;3240;48.790;9.210;2022-10-30T11:18:35;12.17;;;4.20;;
6414;SDS011;3240;48.790;9.210;2022-10-30T11:21:04;11.30;;;4.50;;
6414;SDS011;3240;48.790;9.210;2022-10-30T11:23:34;12.27;;;5.17;;
6414;SDS011;3240;48.790;9.210;2022-10-30T11:26:01;12.23;;;4.10;;
6414;SDS011;3240;48.790;9.210;2022-10-30T11:28:33;9.83;;;4.07;;
6414;SDS011;3240;48.790;9.210;2022-10-30T11:31:18;13.93;;;4.70;;
6414;SDS011;3240;48.790;9.210;2022-10-30T11:33:45;9.17;;;4.07;;
6414;SDS011;3240;48.790;9.210;2022-10-30T11:36:14;12.83;;;4.90;;
6414;SDS011;3240;48.790;9.210;2022-10-30T11:38:41;17.60;;;5.00;;
6414;SDS011;3240;48.790;9.210;2022-10-30T11:41:10;9.40;;;4.30;;
6414;SDS011;3240;48.790;9.210;2022-10-30T11:43:39;12.20;;;4.33;;
6414;SDS011;3240;48.790;9.210;2022-10-30T11:46:07;11.20;;;4.87;;
6414;SDS011;3240;48.790;9.210;2022-10-30T11:48:36;12.20;;;5.03;;
6414;SDS011;3240;48.790;9.210;2022-10-30T11:51:03;13.60;;;5.23;;
6414;SDS011;3240;48.790;9.210;2022-10-30T11:53:32;14.37;;;5.20;;
6414;SDS011;3240;48.790;9.210;2022-10-30T11:56:00;9.20;;;4.50;;
6414;SDS011;3240;48.790;9.210;2022-10-30T11:58:29;10.23;;;4.13;;
6414;SDS011;3240;48.790;9.210;2022-10-30T12:01:00;9.90;;;3.70;;
6414;SDS011;3240;48.790;9.210;2022-10-30T12:03:35;14.77;;;5.50;;
6414;SDS011;3240;48.790;9.210;2022-10-30T12:06:26;8.40;;;4.13;;
6414;SDS011;3240;48.790;9.210;2022-10-30T12:09:00;8.10;;;4.60;;
6414;SDS011;3240;48.790;9.210;2022-10-30T12:11:29;15.57;;;4.93;;
6414;SDS011;3240;48.790;9.210;2022-10-30T12:13:56;14.20;;;5.83;;
6414;SDS011;3240;48.790;9.210;2022-10-30T12:16:24;12.63;;;4.77;;
6414;SDS011;3240;48.790;9.210;2022-10-30T12:18:55;9.20;;;3.90;;
6414;SDS011;3240;48.790;9.210;2022-10-30T12:21:22;23.37;;;5.20;;
6414;SDS011;3240;48.790;9.210;2022-10-30T12:23:52;11.27;;;4.80;;
6414;SDS011;3240;48.790;9.210;2022-10-30T12:26:18;15.43;;;4.90;;
6414;SDS011;3240;48.790;9.210;2022-10-30T12:28:51;9.93;;;4.33;;
6414;SDS011;3240;48.790;9.210;2022-10-30T12:31:18;9.57;;;5.50;;
6414;SDS011;3240;48.790;9.210;2022-10-30T12:33:51;12.50;;;5.30;;
6414;SDS011;3240;48.790;9.210;2022-10-30T12:36:17;16.23;;;5.20;;
6414;SDS011;3240;48.790;9.210;2022-10-30T12:41:21;11.93;;;5.00;;
6414;SDS011;3240;48.790;9.210;2022-10-30T12:43:51;10.60;;;5.40;;
6414;SDS011;3240;48.790;9.210;2022-10-30T12:46:20;12.33;;;4.80;;
6414;SDS011;3240;48.790;9.210;2022-10-30T12:48:46;11.93;;;5.43;;
6414;SDS011;3240;48.790;9.210;2022-10-30T12:51:16;12.80;;;5.03;;
6414;SDS011;3240;48.790;9.210;2022-10-30T12:53:42;9.63;;;4.90;;
6414;SDS011;3240;48.790;9.210;2022-10-30T12:56:11;14.90;;;5.37;;
6414;SDS011;3240;48.790;9.210;2022-10-30T12:58:40;15.43;;;4.93;;
6414;SDS011;3240;48.790;9.210;2022-10-30T13:01:11;14.03;;;4.63;;
6414;SDS011;3240;48.790;9.210;2022-10-30T13:03:38;12.50;;;5.67;;
6414;SDS011;3240;48.790;9.210;2022-10-30T13:08:58;12.10;;;4.77;;
6414;SDS011;3240;48.790;9.210;2022-10-30T13:11:23;9.33;;;4.70;;
6414;SDS011;3240;48.790;9.210;2022-10-30T13:13:49;7.00;;;4.67;;
6414;SDS011;3240;48.790;9.210;2022-10-30T13:16:19;12.13;;;5.57;;
6414;SDS011;3240;48.790;9.210;2022-10-30T13:18:46;9.60;;;4.80;;
6414;SDS011;3240;48.790;9.210;2022-10-30T13:21:18;9.80;;;4.43;;
6414;SDS011;3240;48.790;9.210;2022-10-30T13:24:17;15.43;;;4.70;;
6414;SDS011;3240;48.790;9.210;2022-10-30T13:26:29;10.03;;;4.50;;
6414;SDS011;3240;48.790;9.210;2022-10-30T13:28:58;9.87;;;4.33;;
6414;SDS011;3240;48.790;9.210;2022-10-30T13:31:32;8.50;;;4.30;;
6414;SDS011;3240;48.790;9.210;2022-10-30T13:34:04;12.60;;;4.37;;
6414;SDS011;3240;48.790;9.210;2022-10-30T13:36:35;9.00;;;3.97;;
6414;SDS011;3240;48.790;9.210;2022-10-30T13:39:06;6.87;;;4.10;;
6414;SDS011;3240;48.790;9.210;2022-10-30T13:41:33;7.93;;;4.30;;
6414;SDS011;3240;48.790;9.210;2022-10-30T13:44:06;10.63;;;4.20;;
6414;SDS011;3240;48.790;9.210;2022-10-30T13:46:43;7.80;;;3.80;;
6414;SDS011;3240;48.790;9.210;2022-10-30T13:49:09;11.63;;;4.87;;
6414;SDS011;3240;48.790;9.210;2022-10-30T13:51:37;9.93;;;4.40;;
6414;SDS011;3240;48.790;9.210;2022-10-30T13:54:13;9.00;;;4.17;;
6414;SDS011;3240;48.790;9.210;2022-10-30T13:56:40;8.00;;;4.27;;
6414;SDS011;3240;48.790;9.210;2022-10-30T13:59:19;11.30;;;4.97;;
6414;SDS011;3240;48.790;9.210;2022-10-30T14:01:49;14.40;;;4.77;;
6414;SDS011;3240;48.790;9.210;2022-10-30T14:04:18;5.83;;;3.97;;
6414;SDS011;3240;48.790;9.210;2022-10-30T14:06:51;14.77;;;4.80;;
6414;SDS011;3240;48.790;9.210;2022-10-30T14:09:20;12.27;;;5.50;;
6414;SDS011;3240;48.790;9.210;2022-10-30T14:11:46;10.87;;;4.63;;
6414;SDS011;3240;48.790;9.210;2022-10-30T14:14:30;9.27;;;4.40;;
6414;SDS011;3240;48.790;9.210;2022-10-30T14:17:07;10.77;;;5.07;;
6414;SDS011;3240;48.790;9.210;2022-10-30T14:19:31;12.13;;;4.50;;
6414;SDS011;3240;48.790;9.210;2022-10-30T14:21:59;9.43;;;4.10;;
6414;SDS011;3240;48.790;9.210;2022-10-30T14:24:28;10.70;;;5.10;;
6414;SDS011;3240;48.790;9.210;2022-10-30T14:27:09;9.60;;;4.00;;
6414;SDS011;3240;48.790;9.210;2022-10-30T14:29:40;11.03;;;4.40;;
6414;SDS011;3240;48.790;9.210;2022-10-30T14:32:32;13.50;;;4.80;;
6414;SDS011;3240;48.790;9.210;2022-10-30T14:34:57;9.37;;;4.40;;
6414;SDS011;3240;48.790;9.210;2022-10-30T14:37:56;13.07;;;4.43;;
6414;SDS011;3240;48.790;9.210;2022-10-30T14:42:45;8.53;;;4.23;;
6414;SDS011;3240;48.790;9.210;2022-10-30T14:45:13;12.40;;;5.00;;
6414;SDS011;3240;48.790;9.210;2022-10-30T14:50:51;8.57;;;3.77;;
6414;SDS011;3240;48.790;9.210;2022-10-30T14:53:09;9.27;;;3.87;;
6414;SDS011;3240;48.790;9.210;2022-10-30T14:55:38;11.63;;;4.70;;
6414;SDS011;3240;48.790;9.210;2022-10-30T14:58:20;7.33;;;4.30;;
6414;SDS011;3240;48.790;9.210;2022-10-30T15:00:46;11.90;;;4.50;;
6414;SDS011;3240;48.790;9.210;2022-10-30T15:03:16;11.50;;;5.43;;
6414;SDS011;3240;48.790;9.210;2022-10-30T15:05:48;8.63;;;4.20;;
6414;SDS011;3240;48.790;9.210;2022-10-30T15:08:21;11.00;;;5.17;;
6414;SDS011;3240;48.790;9.210;2022-10-30T15:10:50;14.90;;;6.20;;
6414;SDS011;3240;48.790;9.210;2022-10-30T15:13:18;14.70;;;6.20;;
6414;SDS011;3240;48.790;9.210;2022-10-30T15:18:20;13.80;;;6.17;;
6414;SDS011;3240;48.790;9.210;2022-10-30T15:20:49;11.50;;;6.20;;
6414;SDS011;3240;48.790;9.210;2022-10-30T15:23:19;13.90;;;7.10;;
6414;SDS011;3240;48.790;9.210;2022-10-30T15:25:46;17.30;;;7.60;;
6414;SDS011;3240;48.790;9.210;2022-10-30T15:28:18;15.23;;;7.40;;
6414;SDS011;3240;48.790;9.210;2022-10-30T15:33:21;18.57;;;8.53;;
6414;SDS011;3240;48.790;9.210;2022-10-30T15:35:48;19.03;;;8.60;;
6414;SDS011;3240;48.790;9.210;2022-10-30T15:38:17;21.17;;;8.53;;
6414;SDS011;3240;48.790;9.210;2022-10-30T15:40:45;12.77;;;7.77;;
6414;SDS011;3240;48.790;9.210;2022-10-30T15:43:14;18.50;;;8.53;;
6414;SDS011;3240;48.790;9.210;2022-10-30T15:45:43;19.50;;;8.80;;
6414;SDS011;3240;48.790;9.210;2022-10-30T15:48:15;24.55;;;9.80;;
6414;SDS011;3240;48.790;9.210;2022-10-30T15:50:40;19.13;;;8.87;;
6414;SDS011;3240;48.790;9.210;2022-10-30T15:53:15;17.77;;;9.20;;